createdAt,value
2024-01-21T00:01:37.150Z,101680.19
2024-01-21T00:04:05.112Z,101678.53
2024-01-21T00:06:32.908Z,101660.59
2024-01-21T00:09:00.658Z,101658.91
2024-01-21T00:11:28.406Z,101625.56
2024-01-21T00:13:57.825Z,101629.91
2024-01-21T00:16:26.854Z,101629.06
2024-01-21T00:18:54.706Z,101635.06
2024-01-21T00:21:22.559Z,101628.25
2024-01-21T00:23:50.329Z,101623.16
2024-01-21T00:26:18.082Z,101620.63
2024-01-21T00:28:46.021Z,101618.06
2024-01-21T00:31:13.736Z,101612.09
2024-01-21T00:33:42.891Z,101606.13
2024-01-21T00:36:12.924Z,101586.50
2024-01-21T00:38:42.731Z,101592.47
2024-01-21T00:41:15.087Z,101582.22
2024-01-21T00:43:42.861Z,101584.81
2024-01-21T00:46:10.647Z,101577.94
2024-01-21T00:48:38.511Z,101570.28
2024-01-21T00:51:07.831Z,101570.28
2024-01-21T00:53:35.873Z,101577.13
2024-01-21T00:56:03.701Z,101575.44
2024-01-21T00:58:31.526Z,101557.50
2024-01-21T01:00:59.600Z,101561.78
2024-01-21T01:03:27.468Z,101565.25
2024-01-21T01:05:55.303Z,101565.25
2024-01-21T01:08:24.436Z,101545.56
2024-01-21T01:10:52.137Z,101559.25
2024-01-21T01:13:19.921Z,101539.63
2024-01-21T01:15:47.777Z,101555.84
2024-01-21T01:18:16.626Z,101545.59
2024-01-21T01:20:44.495Z,101543.91
2024-01-21T01:23:12.276Z,101543.03
2024-01-21T01:25:41.397Z,101543.03
2024-01-21T01:28:09.138Z,101532.81
2024-01-21T01:30:37.697Z,101529.38
2024-01-21T01:33:06.169Z,101533.63
2024-01-21T01:35:33.992Z,101537.91
2024-01-21T01:38:01.749Z,101537.91
2024-01-21T01:40:30.082Z,101528.50
2024-01-21T01:43:03.490Z,101538.75
2024-01-21T01:45:31.441Z,101527.66
2024-01-21T01:47:59.570Z,101535.34
2024-01-21T01:50:27.981Z,101524.22
2024-01-21T01:52:55.788Z,101525.94
2024-01-21T01:55:23.690Z,101516.50
2024-01-21T01:57:51.764Z,101523.38
2024-01-21T02:00:21.184Z,101507.13
2024-01-21T02:02:49.043Z,101514.81
2024-01-21T02:05:16.854Z,101499.44
2024-01-21T02:07:44.635Z,101510.53
2024-01-21T02:10:12.520Z,101504.53
2024-01-21T02:12:43.020Z,101504.56
2024-01-21T02:15:12.062Z,101488.31
2024-01-21T02:17:41.449Z,101488.31
2024-01-21T02:20:10.891Z,101476.34
2024-01-21T02:22:41.266Z,101477.22
2024-01-21T02:25:10.914Z,101469.53
2024-01-21T02:27:39.884Z,101473.84
2024-01-21T02:30:08.767Z,101461.00
2024-01-21T02:32:36.632Z,101460.16
2024-01-21T02:35:04.474Z,101456.72
2024-01-21T02:37:32.479Z,101453.31
2024-01-21T02:40:00.243Z,101449.91
2024-01-21T02:42:29.522Z,101440.50
2024-01-21T02:44:57.440Z,101446.47
2024-01-21T02:47:25.788Z,101439.69
2024-01-21T02:49:53.915Z,101432.00
2024-01-21T02:52:21.683Z,101432.00
2024-01-21T02:54:49.482Z,101430.28
2024-01-21T02:57:17.330Z,101418.31
2024-01-21T02:59:46.534Z,101417.47
2024-01-21T03:02:14.339Z,101423.47
2024-01-21T03:04:42.120Z,101418.31
2024-01-21T03:07:09.805Z,101418.31
2024-01-21T03:09:37.597Z,101418.31
2024-01-21T03:12:05.592Z,101408.91
2024-01-21T03:14:33.320Z,101397.81
2024-01-21T03:17:04.182Z,101408.91
2024-01-21T03:19:32.013Z,101411.47
2024-01-21T03:21:59.844Z,101392.69
2024-01-21T03:24:27.699Z,101391.84
2024-01-21T03:26:55.479Z,101396.09
2024-01-21T03:29:23.194Z,101385.88
2024-01-21T03:31:51.033Z,101371.34
2024-01-21T03:34:20.205Z,101365.41
2024-01-21T03:36:48.009Z,101365.41
2024-01-21T03:39:15.821Z,101365.38
2024-01-21T03:41:43.670Z,101354.28
2024-01-21T03:44:11.429Z,101360.28
2024-01-21T03:46:40.306Z,101358.56
2024-01-21T03:49:08.132Z,101351.75
2024-01-21T03:51:37.328Z,101352.59
2024-01-21T03:54:05.110Z,101357.72
2024-01-21T03:56:32.890Z,101352.59
2024-01-21T03:59:00.666Z,101341.50
2024-01-21T04:01:28.595Z,101334.69
2024-01-21T04:03:56.402Z,101332.97
2024-01-21T04:06:24.294Z,101329.56
2024-01-21T04:08:53.371Z,101321.88
2024-01-21T04:11:21.090Z,101318.47
2024-01-21T04:13:48.896Z,101320.16
2024-01-21T04:16:16.637Z,101315.06
2024-01-21T04:18:44.485Z,101311.63
2024-01-21T04:21:12.392Z,101308.22
2024-01-21T04:23:40.373Z,101306.50
2024-01-21T04:26:09.603Z,101297.13
2024-01-21T04:28:38.804Z,101306.50
2024-01-21T04:31:07.075Z,101293.72
2024-01-21T04:33:34.872Z,101292.84
2024-01-21T04:36:02.613Z,101272.38
2024-01-21T04:38:30.321Z,101280.03
2024-01-21T04:40:58.004Z,101268.09
2024-01-21T04:43:27.079Z,101263.81
2024-01-21T04:45:56.622Z,101247.56
2024-01-21T04:48:24.483Z,101248.41
2024-01-21T04:50:52.479Z,101247.59
2024-01-21T04:53:20.238Z,101228.81
2024-01-21T04:55:47.933Z,101233.91
2024-01-21T04:58:15.642Z,101245.00
2024-01-21T05:00:44.806Z,101245.00
2024-01-21T05:03:12.674Z,101245.84
2024-01-21T05:05:40.456Z,101238.97
2024-01-21T05:08:08.612Z,101233.03
2024-01-21T05:10:37.498Z,101225.31
2024-01-21T05:13:05.718Z,101215.91
2024-01-21T05:15:33.593Z,101218.47
2024-01-21T05:18:02.714Z,101214.22
2024-01-21T05:20:30.458Z,101215.91
2024-01-21T05:22:58.172Z,101191.19
2024-01-21T05:25:26.014Z,101197.16
2024-01-21T05:27:53.786Z,101180.94
2024-01-21T05:30:21.630Z,101192.91
2024-01-21T05:32:52.072Z,101197.19
2024-01-21T05:35:23.829Z,101198.03
2024-01-21T05:37:51.721Z,101186.09
2024-01-21T05:40:19.812Z,101194.63
2024-01-21T05:42:47.608Z,101197.16
2024-01-21T05:45:15.334Z,101198.03
2024-01-21T05:47:43.148Z,101206.56
2024-01-21T05:50:11.531Z,101190.38
2024-01-21T05:52:40.600Z,101193.78
2024-01-21T05:55:09.209Z,101184.38
2024-01-21T05:57:38.677Z,101163.03
2024-01-21T06:00:07.598Z,101176.69
2024-01-21T06:02:37.593Z,101174.97
2024-01-21T06:05:05.779Z,101154.53
2024-01-21T06:07:33.705Z,101169.84
2024-01-21T06:10:04.525Z,101145.09
2024-01-21T06:12:32.281Z,101169.84
2024-01-21T06:15:00.046Z,101149.34
2024-01-21T06:17:27.795Z,101162.16
2024-01-21T06:19:55.515Z,101162.16
2024-01-21T06:22:23.275Z,101169.00
2024-01-21T06:24:51.118Z,101158.75
2024-01-21T06:27:20.279Z,101156.19
2024-01-21T06:29:48.013Z,101157.91
2024-01-21T06:32:15.813Z,101137.41
2024-01-21T06:34:43.706Z,101145.09
2024-01-21T06:37:11.505Z,101145.94
2024-01-21T06:39:39.311Z,101134.88
2024-01-21T06:42:07.604Z,101127.19
2024-01-21T06:44:37.232Z,101124.63
2024-01-21T06:47:06.046Z,101155.34
2024-01-21T06:49:33.838Z,101172.44
2024-01-21T06:52:01.575Z,101180.13
2024-01-21T06:54:29.357Z,101179.28
2024-01-21T06:56:57.054Z,101191.22
2024-01-21T06:59:24.808Z,101207.44
2024-01-21T07:01:53.929Z,101203.19
2024-01-21T07:04:21.817Z,101203.16
2024-01-21T07:06:53.650Z,101215.16
2024-01-21T07:09:21.527Z,101193.78
2024-01-21T07:11:49.309Z,101206.59
2024-01-21T07:14:17.645Z,101204.03
2024-01-21T07:16:45.372Z,101210.88
2024-01-21T07:19:14.802Z,101188.66
2024-01-21T07:21:42.672Z,101216.00
2024-01-21T07:24:10.405Z,101213.41
2024-01-21T07:26:38.189Z,101204.88
2024-01-21T07:29:06.005Z,101216.84
2024-01-21T07:31:33.942Z,101218.53
2024-01-21T07:34:01.810Z,101233.91
2024-01-21T07:36:31.138Z,101246.72
2024-01-21T07:38:58.981Z,101231.38
2024-01-21T07:41:26.663Z,101240.75
2024-01-21T07:43:54.471Z,101239.91
2024-01-21T07:46:22.286Z,101239.91
2024-01-21T07:48:50.381Z,101239.91
2024-01-21T07:51:19.473Z,101239.06
2024-01-21T07:53:48.664Z,101234.78
2024-01-21T07:56:16.469Z,101214.28
2024-01-21T07:58:44.260Z,101221.97
2024-01-21T08:01:13.243Z,101212.59
2024-01-21T08:03:42.049Z,101207.44
2024-01-21T08:06:10.051Z,101204.88
2024-01-21T08:08:37.865Z,101201.50
2024-01-21T08:11:07.302Z,101198.06
2024-01-21T08:13:35.043Z,101180.97
2024-01-21T08:16:02.849Z,101183.56
2024-01-21T08:18:31.944Z,101159.63
2024-01-21T08:21:00.576Z,101175.03
2024-01-21T08:23:31.197Z,101181.81
2024-01-21T08:25:58.998Z,101180.09
2024-01-21T08:28:28.054Z,101187.81
2024-01-21T08:30:56.093Z,101169.03
2024-01-21T08:33:24.001Z,101201.47
2024-01-21T08:35:51.892Z,101167.28
2024-01-21T08:38:19.768Z,101213.41
2024-01-21T08:40:53.551Z,101228.72
2024-01-21T08:43:21.310Z,101243.25
2024-01-21T08:45:53.455Z,101261.16
2024-01-21T08:48:21.408Z,101277.41
2024-01-21T08:50:49.821Z,101290.19
2024-01-21T08:53:17.740Z,101290.19
2024-01-21T08:55:45.910Z,101285.91
2024-01-21T08:58:13.699Z,101263.69
2024-01-21T09:00:41.532Z,101274.78
2024-01-21T09:03:14.106Z,101268.81
2024-01-21T09:05:42.262Z,101278.16
2024-01-21T09:08:10.140Z,101299.50
2024-01-21T09:10:38.017Z,101279.88
2024-01-21T09:13:06.696Z,101278.16
2024-01-21T09:15:36.333Z,101296.94
2024-01-21T09:18:04.494Z,101284.97
2024-01-21T09:20:33.674Z,101276.41
2024-01-21T09:23:01.563Z,101272.13
2024-01-21T09:25:32.353Z,101272.13
2024-01-21T09:28:00.340Z,101278.97
2024-01-21T09:30:28.268Z,101280.66
2024-01-21T09:32:56.153Z,101271.25
2024-01-21T09:35:24.000Z,101270.44
2024-01-21T09:37:53.287Z,101277.25
2024-01-21T09:40:21.068Z,101290.91
2024-01-21T09:42:51.081Z,101291.75
2024-01-21T09:45:18.964Z,101304.53
2024-01-21T09:47:51.867Z,101290.88
2024-01-21T09:50:22.290Z,101296.78
2024-01-21T09:52:50.119Z,101297.63
2024-01-21T09:55:19.823Z,101275.41
2024-01-21T09:57:48.205Z,101265.94
2024-01-21T10:00:16.874Z,101269.28
2024-01-21T10:02:45.386Z,101254.72
2024-01-21T10:05:13.382Z,101258.06
2024-01-21T10:07:42.108Z,101276.03
2024-01-21T10:10:10.425Z,101272.56
2024-01-21T10:12:39.863Z,101278.63
2024-01-21T10:15:08.508Z,101281.13
2024-01-21T10:17:36.547Z,101290.50
2024-01-21T10:20:05.979Z,101287.84
2024-01-21T10:22:33.962Z,101279.28
2024-01-21T10:25:04.092Z,101297.19
2024-01-21T10:27:32.462Z,101305.72
2024-01-21T10:30:01.591Z,101301.47
2024-01-21T10:32:29.374Z,101303.13
2024-01-21T10:34:58.153Z,101306.53
2024-01-21T10:37:26.729Z,101302.28
2024-01-21T10:39:56.146Z,101297.97
2024-01-21T10:42:24.221Z,101294.59
2024-01-21T10:44:52.451Z,101298.84
2024-01-21T10:47:22.450Z,101296.25
2024-01-21T10:50:01.716Z,101301.34
2024-01-21T10:52:29.728Z,101293.69
2024-01-21T10:55:00.403Z,101293.69
2024-01-21T10:57:29.034Z,101294.59
2024-01-21T10:59:57.305Z,101308.16
2024-01-21T11:02:26.493Z,101300.47
2024-01-21T11:04:54.278Z,101289.41
2024-01-21T11:07:22.368Z,101301.41
2024-01-21T11:09:50.717Z,101295.38
2024-01-21T11:12:19.496Z,101302.19
2024-01-21T11:14:47.842Z,101310.78
2024-01-21T11:17:18.745Z,101315.03
2024-01-21T11:19:52.865Z,101273.97
2024-01-21T11:22:23.351Z,101293.69
2024-01-21T11:24:52.790Z,101296.41
2024-01-21T11:27:23.375Z,101272.44
2024-01-21T11:29:51.761Z,101280.19
2024-01-21T11:32:25.417Z,101270.78
2024-01-21T11:34:55.117Z,101269.09
2024-01-21T11:37:23.929Z,101264.84
2024-01-21T11:39:51.708Z,101266.56
2024-01-21T11:42:19.652Z,101268.25
2024-01-21T11:44:47.524Z,101258.00
2024-01-21T11:47:15.382Z,101254.53
2024-01-21T11:49:43.202Z,101247.63
2024-01-21T11:52:12.471Z,101237.34
2024-01-21T11:54:40.992Z,101229.72
2024-01-21T11:57:09.362Z,101242.47
2024-01-21T11:59:37.450Z,101227.91
2024-01-21T12:02:10.602Z,101230.41
2024-01-21T12:04:39.224Z,101237.28
2024-01-21T12:07:07.951Z,101225.13
2024-01-21T12:09:37.247Z,101218.22
2024-01-21T12:12:08.674Z,101225.84
2024-01-21T12:14:36.595Z,101218.91
2024-01-21T12:17:04.535Z,101213.72
2024-01-21T12:19:32.353Z,101218.97
2024-01-21T12:22:00.450Z,101219.81
2024-01-21T12:24:28.465Z,101229.13
2024-01-21T12:26:57.700Z,101228.38
2024-01-21T12:29:26.021Z,101223.25
2024-01-21T12:31:54.215Z,101219.03
2024-01-21T12:34:22.113Z,101213.97
2024-01-21T12:36:51.437Z,101224.19
2024-01-21T12:39:23.175Z,101223.28
2024-01-21T12:41:51.374Z,101212.94
2024-01-21T12:44:20.450Z,101207.03
2024-01-21T12:46:48.861Z,101210.31
2024-01-21T12:49:17.261Z,101213.66
2024-01-21T12:51:46.753Z,101213.59
2024-01-21T12:54:15.411Z,101229.91
2024-01-21T12:56:43.336Z,101229.00
2024-01-21T12:59:12.988Z,101234.16
2024-01-21T13:01:42.358Z,101236.69
2024-01-21T13:04:11.601Z,101253.00
2024-01-21T13:06:39.656Z,101246.94
2024-01-21T13:09:09.091Z,101250.38
2024-01-21T13:11:36.999Z,101236.75
2024-01-21T13:14:04.883Z,101258.94
2024-01-21T13:16:34.696Z,101263.22
2024-01-21T13:19:03.985Z,101268.34
2024-01-21T13:21:32.231Z,101258.91
2024-01-21T13:23:59.945Z,101257.22
2024-01-21T13:26:27.684Z,101258.09
2024-01-21T13:29:09.729Z,101254.66
2024-01-21T13:31:39.278Z,101248.63
2024-01-21T13:34:10.571Z,101242.59
2024-01-21T13:36:38.828Z,101248.66
2024-01-21T13:39:06.954Z,101260.63
2024-01-21T13:41:34.946Z,101239.19
2024-01-21T13:44:02.844Z,101241.78
2024-01-21T13:46:30.619Z,101252.00
2024-01-21T13:48:58.530Z,101238.19
2024-01-21T13:51:27.796Z,101241.69
2024-01-21T13:53:55.677Z,101240.88
2024-01-21T13:56:24.576Z,101228.78
2024-01-21T13:58:52.883Z,101238.28
2024-01-21T14:01:20.899Z,101249.28
2024-01-21T14:03:48.720Z,101241.56
2024-01-21T14:06:20.052Z,101231.31
2024-01-21T14:08:49.122Z,101238.22
2024-01-21T14:11:16.865Z,101240.69
2024-01-21T14:13:45.508Z,101229.59
2024-01-21T14:16:13.354Z,101233.78
2024-01-21T14:18:42.149Z,101215.00
2024-01-21T14:21:10.124Z,101216.72
2024-01-21T14:23:38.598Z,101197.03
2024-01-21T14:26:10.560Z,101195.34
2024-01-21T14:28:42.207Z,101200.38
2024-01-21T14:31:10.662Z,101204.66
2024-01-21T14:33:39.208Z,101208.03
2024-01-21T14:36:09.750Z,101224.31
2024-01-21T14:38:39.188Z,101220.84
2024-01-21T14:41:08.708Z,101215.75
2024-01-21T14:43:36.622Z,101223.53
2024-01-21T14:46:04.731Z,101221.78
2024-01-21T14:48:33.108Z,101213.25
2024-01-21T14:51:01.010Z,101219.28
2024-01-21T14:53:28.804Z,101215.06
2024-01-21T14:55:56.581Z,101217.66
2024-01-21T14:58:25.755Z,101210.78
2024-01-21T15:00:53.719Z,101216.72
2024-01-21T15:03:21.566Z,101215.94
2024-01-21T15:05:49.555Z,101207.38
2024-01-21T15:08:20.108Z,101201.31
2024-01-21T15:10:47.900Z,101187.66
2024-01-21T15:13:16.374Z,101197.03
2024-01-21T15:15:45.614Z,101191.03
2024-01-21T15:18:23.475Z,101199.59
2024-01-21T15:20:55.800Z,101191.81
2024-01-21T15:23:23.626Z,101175.53
2024-01-21T15:25:51.321Z,101166.94
2024-01-21T15:28:19.188Z,101185.81
2024-01-21T15:30:48.540Z,101184.91
2024-01-21T15:33:16.555Z,101177.09
2024-01-21T15:35:44.280Z,101188.22
2024-01-21T15:38:12.278Z,101183.06
2024-01-21T15:40:42.424Z,101154.00
2024-01-21T15:43:10.385Z,101172.72
2024-01-21T15:45:40.376Z,101176.13
2024-01-21T15:48:10.086Z,101154.66
2024-01-21T15:50:38.107Z,101152.94
2024-01-21T15:53:06.145Z,101150.34
2024-01-21T15:55:33.890Z,101154.66
2024-01-21T15:58:01.757Z,101150.38
2024-01-21T16:00:34.118Z,101164.22
2024-01-21T16:03:04.772Z,101136.66
2024-01-21T16:05:34.303Z,101135.88
2024-01-21T16:08:02.110Z,101138.47
2024-01-21T16:10:30.003Z,101125.66
2024-01-21T16:12:57.889Z,101132.53
2024-01-21T16:15:34.325Z,101154.00
2024-01-21T16:18:08.244Z,101156.56
2024-01-21T16:20:39.220Z,101166.06
2024-01-21T16:23:07.767Z,101143.81
2024-01-21T16:25:36.266Z,101139.59
2024-01-21T16:28:04.075Z,101158.44
2024-01-21T16:30:31.862Z,101161.00
2024-01-21T16:32:59.614Z,101178.25
2024-01-21T16:35:27.506Z,101168.75
2024-01-21T16:37:56.700Z,101147.38
2024-01-21T16:40:24.689Z,101143.97
2024-01-21T16:42:52.467Z,101160.16
2024-01-21T16:45:21.919Z,101163.56
2024-01-21T16:47:49.914Z,101164.47
2024-01-21T16:50:17.860Z,101166.16
2024-01-21T16:52:47.602Z,101161.88
2024-01-21T16:55:19.899Z,101159.25
2024-01-21T16:57:47.803Z,101143.97
2024-01-21T17:00:22.353Z,101120.84
2024-01-21T17:02:51.082Z,101137.09
2024-01-21T17:05:19.091Z,101126.72
2024-01-21T17:07:49.693Z,101119.88
2024-01-21T17:10:23.453Z,101121.53
2024-01-21T17:12:53.012Z,101114.78
2024-01-21T17:15:20.793Z,101101.88
2024-01-21T17:17:51.125Z,101105.41
2024-01-21T17:20:18.867Z,101098.50
2024-01-21T17:22:47.021Z,101083.88
2024-01-21T17:25:14.719Z,101093.31
2024-01-21T17:27:43.838Z,101096.69
2024-01-21T17:30:13.018Z,101101.88
2024-01-21T17:32:41.111Z,101103.59
2024-01-21T17:35:09.499Z,101103.59
2024-01-21T17:37:37.330Z,101113.84
2024-01-21T17:40:07.288Z,101111.25
2024-01-21T17:42:35.590Z,101128.38
2024-01-21T17:45:08.212Z,101109.56
2024-01-21T17:47:36.322Z,101098.41
2024-01-21T17:50:04.809Z,101076.91
2024-01-21T17:52:32.677Z,101093.16
2024-01-21T17:55:00.666Z,101096.63
2024-01-21T17:57:29.112Z,101106.03
2024-01-21T17:59:56.880Z,101099.16
2024-01-21T18:02:29.090Z,101091.47
2024-01-21T18:04:59.598Z,101093.13
2024-01-21T18:07:27.460Z,101086.28
2024-01-21T18:09:55.196Z,101092.34
2024-01-21T18:12:22.923Z,101094.84
2024-01-21T18:14:50.770Z,101078.59
2024-01-21T18:17:19.818Z,101092.34
2024-01-21T18:19:48.909Z,101096.63
2024-01-21T18:22:18.841Z,101100.88
2024-01-21T18:24:51.540Z,101091.47
2024-01-21T18:27:19.632Z,101090.59
2024-01-21T18:29:47.514Z,101077.78
2024-01-21T18:32:15.336Z,101063.31
2024-01-21T18:34:44.337Z,101070.97
2024-01-21T18:37:13.564Z,101076.16
2024-01-21T18:39:41.302Z,101077.88
2024-01-21T18:42:09.198Z,101076.16
2024-01-21T18:44:37.801Z,101066.75
2024-01-21T18:47:05.972Z,101056.50
2024-01-21T18:49:34.095Z,101042.78
2024-01-21T18:52:05.880Z,101023.09
2024-01-21T18:54:39.708Z,101001.66
2024-01-21T18:57:11.819Z,101009.25
2024-01-21T18:59:44.121Z,101019.53
2024-01-21T19:02:12.606Z,101019.44
2024-01-21T19:04:44.886Z,101017.78
2024-01-21T19:07:17.020Z,101025.47
2024-01-21T19:09:46.637Z,101021.97
2024-01-21T19:12:17.396Z,101020.19
2024-01-21T19:14:45.389Z,101003.91
2024-01-21T19:17:13.672Z,100996.16
2024-01-21T19:19:41.547Z,100983.28
2024-01-21T19:22:09.320Z,100974.78
2024-01-21T19:24:37.071Z,100970.47
2024-01-21T19:27:07.023Z,100950.75
2024-01-21T19:29:34.807Z,100950.00
2024-01-21T19:32:03.964Z,100955.13
2024-01-21T19:34:31.726Z,100951.63
2024-01-21T19:36:59.607Z,100955.91
2024-01-21T19:39:27.408Z,100946.50
2024-01-21T19:41:55.139Z,100933.69
2024-01-21T19:44:25.940Z,100932.81
2024-01-21T19:46:53.678Z,100939.66
2024-01-21T19:49:21.538Z,100937.91
2024-01-21T19:51:49.408Z,100925.03
2024-01-21T19:54:17.967Z,100922.53
2024-01-21T19:56:46.223Z,100920.00
2024-01-21T19:59:14.114Z,100917.25
2024-01-21T20:01:44.773Z,100916.50
2024-01-21T20:04:13.884Z,100920.59
2024-01-21T20:06:42.070Z,100918.81
2024-01-21T20:09:10.422Z,100901.66
2024-01-21T20:11:40.118Z,100892.19
2024-01-21T20:14:10.097Z,100869.84
2024-01-21T20:16:40.060Z,100870.66
2024-01-21T20:19:09.598Z,100876.69
2024-01-21T20:21:38.739Z,100870.63
2024-01-21T20:24:07.493Z,100873.25
2024-01-21T20:26:35.514Z,100871.50
2024-01-21T20:29:03.311Z,100870.56
2024-01-21T20:31:31.075Z,100868.09
2024-01-21T20:33:59.126Z,100859.44
2024-01-21T20:36:28.548Z,100847.47
2024-01-21T20:38:56.254Z,100843.94
2024-01-21T20:41:24.049Z,100849.91
2024-01-21T20:43:51.823Z,100836.16
2024-01-21T20:46:19.686Z,100816.41
2024-01-21T20:48:48.697Z,100816.28
2024-01-21T20:51:16.617Z,100807.47
2024-01-21T20:53:49.898Z,100805.78
2024-01-21T20:56:21.087Z,100804.72
2024-01-21T20:58:49.095Z,100812.41
2024-01-21T21:01:18.013Z,100793.38
2024-01-21T21:03:46.019Z,100787.34
2024-01-21T21:06:13.959Z,100784.78
2024-01-21T21:08:42.440Z,100787.22
2024-01-21T21:11:11.712Z,100781.97
2024-01-21T21:13:40.070Z,100770.75
2024-01-21T21:16:08.794Z,100762.03
2024-01-21T21:18:36.954Z,100753.72
2024-01-21T21:21:05.309Z,100776.75
2024-01-21T21:23:33.137Z,100763.75
2024-01-21T21:26:00.926Z,100758.59
2024-01-21T21:28:30.119Z,100761.19
2024-01-21T21:30:57.966Z,100751.69
2024-01-21T21:33:28.788Z,100734.69
2024-01-21T21:35:58.298Z,100723.34
2024-01-21T21:38:26.282Z,100703.75
2024-01-21T21:40:54.576Z,100720.84
2024-01-21T21:43:22.613Z,100730.31
2024-01-21T21:45:52.178Z,100736.38
2024-01-21T21:48:21.032Z,100735.63
2024-01-21T21:50:50.132Z,100735.63
2024-01-21T21:53:18.465Z,100743.09
2024-01-21T21:55:48.013Z,100747.34
2024-01-21T21:58:16.360Z,100747.25
2024-01-21T22:00:44.413Z,100760.00
2024-01-21T22:03:14.038Z,100735.09
2024-01-21T22:05:42.088Z,100731.69
2024-01-21T22:08:09.951Z,100719.59
2024-01-21T22:10:39.029Z,100722.03
2024-01-21T22:13:07.419Z,100703.06
2024-01-21T22:15:36.995Z,100716.72
2024-01-21T22:18:05.156Z,100703.03
2024-01-21T22:20:35.170Z,100675.50
2024-01-21T22:23:03.183Z,100676.16
2024-01-21T22:25:31.006Z,100642.72
2024-01-21T22:27:58.710Z,100635.72
2024-01-21T22:30:26.638Z,100634.91
2024-01-21T22:32:56.478Z,100613.34
2024-01-21T22:35:24.431Z,100614.06
2024-01-21T22:37:53.585Z,100611.47
2024-01-21T22:40:21.296Z,100614.06
2024-01-21T22:42:48.995Z,100618.31
2024-01-21T22:45:16.925Z,100606.97
2024-01-21T22:47:44.916Z,100604.22
2024-01-21T22:50:12.870Z,100594.13
2024-01-21T22:52:40.612Z,100594.81
2024-01-21T22:55:10.562Z,100570.66
2024-01-21T22:57:38.714Z,100573.16
2024-01-21T23:00:12.068Z,100574.66
2024-01-21T23:02:39.940Z,100560.09
2024-01-21T23:05:08.194Z,100553.22
2024-01-21T23:07:35.993Z,100555.56
2024-01-21T23:10:03.885Z,100532.25
2024-01-21T23:12:32.952Z,100522.03
2024-01-21T23:15:00.822Z,100502.09
2024-01-21T23:17:28.714Z,100522.59
2024-01-21T23:19:56.438Z,100508.66
2024-01-21T23:22:24.343Z,100493.84
2024-01-21T23:24:52.119Z,100502.47
2024-01-21T23:27:19.907Z,100491.31
2024-01-21T23:29:49.281Z,100490.28
2024-01-21T23:32:17.126Z,100479.75
2024-01-21T23:34:44.856Z,100479.75
2024-01-21T23:37:13.097Z,100465.56
2024-01-21T23:39:40.827Z,100456.94
2024-01-21T23:42:08.813Z,100446.50
2024-01-21T23:44:36.669Z,100429.25
2024-01-21T23:47:06.013Z,100429.97
2024-01-21T23:49:33.798Z,100402.47
2024-01-21T23:52:01.577Z,100408.22
2024-01-21T23:54:29.333Z,100403.72
2024-01-21T23:56:57.450Z,100382.25
2024-01-21T23:59:25.269Z,100383.94
